createdAt,value
2019-05-29T00:00:18.270Z,9.23
2019-05-29T00:05:24.514Z,8.93
2019-05-29T00:10:29.620Z,9.80
2019-05-29T00:15:34.388Z,8.40
2019-05-29T00:20:39.310Z,8.73
2019-05-29T00:25:44.163Z,8.07
2019-05-29T00:30:49.034Z,7.23
2019-05-29T00:35:54.128Z,7.37
2019-05-29T00:40:59.011Z,6.37
2019-05-29T00:46:03.934Z,7.30
2019-05-29T00:51:08.932Z,5.63
2019-05-29T00:56:14.643Z,4.83
2019-05-29T01:01:20.365Z,4.90
2019-05-29T01:06:25.450Z,3.27
2019-05-29T01:11:30.372Z,3.90
2019-05-29T01:16:35.147Z,3.80
2019-05-29T01:21:39.923Z,4.37
2019-05-29T01:26:46.142Z,4.10
2019-05-29T01:31:50.975Z,3.77
2019-05-29T01:36:55.824Z,3.60
2019-05-29T01:42:01.893Z,3.20
2019-05-29T01:47:06.614Z,3.63
2019-05-29T01:52:11.341Z,3.17
2019-05-29T01:57:17.742Z,3.07
2019-05-29T02:02:23.914Z,3.50
2019-05-29T02:07:28.748Z,3.23
2019-05-29T02:12:33.518Z,3.27
2019-05-29T02:17:38.367Z,3.57
2019-05-29T02:22:43.209Z,3.90
2019-05-29T02:27:47.909Z,3.60
2019-05-29T02:32:52.796Z,4.07
2019-05-29T02:37:57.616Z,4.30
2019-05-29T02:43:02.335Z,3.77
2019-05-29T02:48:07.117Z,4.77
2019-05-29T02:53:11.826Z,6.03
2019-05-29T02:58:16.604Z,6.60
2019-05-29T03:03:23.751Z,5.50
2019-05-29T03:08:32.523Z,6.30
2019-05-29T03:13:36.816Z,6.93
2019-05-29T03:18:41.855Z,6.03
2019-05-29T03:23:46.880Z,6.47
2019-05-29T03:28:51.818Z,5.90
2019-05-29T03:33:56.656Z,5.93
2019-05-29T03:39:01.685Z,5.27
2019-05-29T03:44:10.268Z,6.27
2019-05-29T03:49:13.821Z,5.10
2019-05-29T03:54:18.834Z,5.73
2019-05-29T03:59:23.766Z,4.30
2019-05-29T04:04:29.065Z,4.43
2019-05-29T04:09:35.558Z,3.17
2019-05-29T04:14:40.491Z,3.07
2019-05-29T04:19:46.515Z,3.00
2019-05-29T04:24:55.098Z,3.10
2019-05-29T04:30:00.403Z,3.17
2019-05-29T04:35:05.546Z,3.03
2019-05-29T04:40:10.478Z,2.90
2019-05-29T04:45:15.393Z,2.93
2019-05-29T04:50:20.423Z,3.00
2019-05-29T04:55:25.325Z,2.70
2019-05-29T05:00:30.911Z,2.80
2019-05-29T05:05:37.353Z,2.83
2019-05-29T05:10:42.438Z,2.73
2019-05-29T05:15:47.441Z,2.77
2019-05-29T05:20:52.465Z,2.80
2019-05-29T05:25:57.647Z,2.80
2019-05-29T05:31:02.751Z,3.10
2019-05-29T05:36:07.658Z,2.67
2019-05-29T05:41:12.503Z,2.30
2019-05-29T05:46:17.278Z,2.50
2019-05-29T05:51:22.021Z,2.17
2019-05-29T05:56:27.161Z,2.37
2019-05-29T06:02:09.628Z,2.30
2019-05-29T06:07:16.610Z,2.33
2019-05-29T06:12:21.494Z,1.90
2019-05-29T06:17:26.419Z,2.10
2019-05-29T06:23:08.691Z,1.87
2019-05-29T06:28:13.772Z,1.70
2019-05-29T06:33:18.672Z,1.80
2019-05-29T06:38:23.824Z,1.50
2019-05-29T06:43:28.892Z,1.60
2019-05-29T06:48:52.344Z,1.80
2019-05-29T06:53:41.753Z,2.13
2019-05-29T06:58:48.381Z,1.80
2019-05-29T07:04:10.574Z,1.23
2019-05-29T07:09:00.149Z,1.97
2019-05-29T07:14:05.361Z,1.70
2019-05-29T07:19:45.070Z,1.33
2019-05-29T07:24:17.187Z,1.07
2019-05-29T07:29:22.099Z,1.17
2019-05-29T07:34:27.038Z,1.40
2019-05-29T07:39:32.107Z,1.30
2019-05-29T07:44:37.994Z,1.50
2019-05-29T07:49:45.308Z,1.03
2019-05-29T07:54:50.092Z,1.10
2019-05-29T07:59:55.469Z,0.80
2019-05-29T08:05:00.600Z,1.17
2019-05-29T08:10:07.203Z,0.90
2019-05-29T08:15:13.178Z,1.20
2019-05-29T08:20:18.221Z,1.20
2019-05-29T08:25:23.360Z,1.23
2019-05-29T08:30:28.555Z,1.10
2019-05-29T08:35:33.552Z,6.07
2019-05-29T08:40:38.826Z,1.60
2019-05-29T08:45:45.534Z,11.43
2019-05-29T08:50:50.675Z,8.03
2019-05-29T08:55:56.947Z,1.43
2019-05-29T09:01:01.818Z,5.90
2019-05-29T09:06:09.229Z,0.90
2019-05-29T09:11:13.893Z,1.10
2019-05-29T09:16:18.986Z,1.37
2019-05-29T09:21:26.607Z,1.50
2019-05-29T09:26:30.888Z,1.40
2019-05-29T09:31:36.752Z,1.20
2019-05-29T09:37:19.054Z,1.10
2019-05-29T09:42:25.333Z,1.30
2019-05-29T09:47:30.536Z,0.90
2019-05-29T09:52:35.603Z,0.97
2019-05-29T09:57:40.576Z,1.00
2019-05-29T10:02:45.531Z,0.83
2019-05-29T10:07:50.818Z,1.20
2019-05-29T10:12:58.134Z,1.30
2019-05-29T10:18:07.413Z,1.07
2019-05-29T10:23:09.997Z,1.10
2019-05-29T10:28:14.858Z,1.10
2019-05-29T10:33:19.862Z,0.90
2019-05-29T10:38:24.760Z,1.20
2019-05-29T10:43:34.290Z,1.10
2019-05-29T10:48:36.417Z,1.23
2019-05-29T10:53:41.442Z,1.00
2019-05-29T10:58:52.450Z,0.93
2019-05-29T11:03:53.957Z,1.00
2019-05-29T11:08:59.197Z,1.10
2019-05-29T11:14:04.187Z,1.00
2019-05-29T11:19:09.120Z,1.47
2019-05-29T11:24:14.196Z,1.40
2019-05-29T11:29:19.055Z,0.70
2019-05-29T11:34:24.066Z,0.97
2019-05-29T11:39:28.983Z,1.10
2019-05-29T11:44:34.646Z,0.90
2019-05-29T11:49:39.533Z,1.33
2019-05-29T11:54:44.455Z,1.20
2019-05-29T11:59:49.616Z,1.20
2019-05-29T12:04:55.135Z,1.20
2019-05-29T12:10:03.553Z,0.97
2019-05-29T12:15:14.442Z,1.13
2019-05-29T12:20:27.168Z,1.33
2019-05-29T12:25:21.628Z,0.80
2019-05-29T12:30:26.887Z,0.70
2019-05-29T12:35:32.059Z,0.80
2019-05-29T12:40:37.128Z,0.80
2019-05-29T12:45:42.121Z,0.83
2019-05-29T12:50:47.197Z,0.73
2019-05-29T12:55:53.801Z,1.00
2019-05-29T13:01:00.532Z,1.20
2019-05-29T13:06:05.603Z,1.50
2019-05-29T13:11:10.421Z,0.77
2019-05-29T13:16:15.903Z,0.90
2019-05-29T13:21:20.993Z,1.10
2019-05-29T13:26:25.987Z,0.80
2019-05-29T13:31:31.131Z,1.00
2019-05-29T13:36:36.190Z,0.97
2019-05-29T13:41:41.255Z,1.40
2019-05-29T13:46:46.214Z,0.97
2019-05-29T13:51:51.537Z,1.10
2019-05-29T13:56:58.981Z,1.00
2019-05-29T14:02:05.789Z,1.00
2019-05-29T14:07:09.964Z,1.03
2019-05-29T14:12:15.611Z,1.07
2019-05-29T14:17:20.566Z,0.87
2019-05-29T14:22:25.659Z,0.87
2019-05-29T14:27:30.946Z,1.00
2019-05-29T14:32:35.939Z,1.10
2019-05-29T14:37:41.210Z,1.00
2019-05-29T14:42:46.002Z,1.00
2019-05-29T14:47:51.198Z,0.90
2019-05-29T14:52:56.238Z,1.20
2019-05-29T14:58:01.280Z,1.20
2019-05-29T15:03:07.404Z,0.90
2019-05-29T15:08:12.438Z,1.20
2019-05-29T15:13:17.360Z,1.13
2019-05-29T15:18:22.263Z,1.17
2019-05-29T15:23:27.509Z,1.00
2019-05-29T15:28:32.962Z,1.40
2019-05-29T15:33:38.178Z,1.20
2019-05-29T15:38:43.067Z,1.20
2019-05-29T15:43:49.384Z,1.17
2019-05-29T15:48:54.319Z,1.07
2019-05-29T15:53:59.043Z,1.17
2019-05-29T15:59:04.122Z,1.30
2019-05-29T16:04:09.636Z,1.10
2019-05-29T16:09:16.317Z,0.87
2019-05-29T16:14:21.397Z,1.00
2019-05-29T16:19:26.396Z,0.80
2019-05-29T16:24:31.335Z,0.90
2019-05-29T16:29:36.101Z,0.90
2019-05-29T16:34:40.972Z,0.80
2019-05-29T16:39:45.835Z,1.07
2019-05-29T16:44:50.706Z,1.10
2019-05-29T16:49:55.627Z,3.20
2019-05-29T16:55:00.635Z,1.50
2019-05-29T17:00:07.631Z,1.07
2019-05-29T17:05:13.642Z,1.57
2019-05-29T17:10:20.152Z,1.10
2019-05-29T17:15:25.552Z,2.70
2019-05-29T17:20:33.928Z,1.27
2019-05-29T17:25:38.925Z,2.73
2019-05-29T17:30:44.003Z,1.80
2019-05-29T17:35:50.104Z,1.90
2019-05-29T17:40:54.971Z,1.20
2019-05-29T17:45:59.842Z,1.20
2019-05-29T17:51:04.914Z,1.40
2019-05-29T17:56:23.328Z,1.37
2019-05-29T18:01:18.128Z,1.40
2019-05-29T18:06:24.521Z,1.80
2019-05-29T18:11:29.897Z,1.30
2019-05-29T18:16:34.991Z,1.47
2019-05-29T18:21:39.815Z,1.30
2019-05-29T18:26:47.201Z,1.30
2019-05-29T18:31:51.289Z,1.60
2019-05-29T18:36:56.202Z,1.20
2019-05-29T18:42:01.139Z,1.60
2019-05-29T18:47:06.073Z,1.60
2019-05-29T18:52:10.954Z,3.40
2019-05-29T18:57:16.303Z,2.13
2019-05-29T19:02:21.437Z,2.20
2019-05-29T19:07:26.252Z,2.07
2019-05-29T19:12:32.113Z,1.67
2019-05-29T19:17:37.319Z,1.80
2019-05-29T19:22:42.577Z,2.30
2019-05-29T19:27:47.399Z,2.10
2019-05-29T19:32:52.201Z,1.90
2019-05-29T19:37:57.084Z,2.50
2019-05-29T19:43:02.574Z,2.60
2019-05-29T19:48:07.341Z,2.43
2019-05-29T19:53:12.277Z,1.67
2019-05-29T19:58:17.134Z,1.83
2019-05-29T20:03:22.041Z,1.40
2019-05-29T20:08:27.049Z,1.53
2019-05-29T20:13:31.900Z,1.37
2019-05-29T20:18:36.932Z,1.57
2019-05-29T20:23:41.681Z,1.30
2019-05-29T20:28:46.410Z,1.33
2019-05-29T20:33:51.276Z,1.27
2019-05-29T20:38:56.134Z,1.30
2019-05-29T20:44:00.992Z,1.50
2019-05-29T20:49:06.243Z,1.00
2019-05-29T20:54:11.032Z,1.23
2019-05-29T20:59:15.821Z,0.90
2019-05-29T21:04:22.808Z,1.23
2019-05-29T21:09:27.785Z,1.30
2019-05-29T21:14:33.482Z,1.30
2019-05-29T21:19:38.515Z,1.10
2019-05-29T21:24:49.984Z,1.03
2019-05-29T21:29:49.857Z,1.20
2019-05-29T21:34:54.810Z,1.07
2019-05-29T21:39:59.562Z,1.00
2019-05-29T21:45:06.199Z,1.00
2019-05-29T21:50:11.546Z,1.23
2019-05-29T21:55:16.490Z,1.10
2019-05-29T22:00:22.977Z,0.80
2019-05-29T22:05:29.658Z,0.77
2019-05-29T22:10:34.789Z,1.03
2019-05-29T22:15:39.752Z,0.90
2019-05-29T22:20:44.593Z,0.97
2019-05-29T22:25:49.509Z,0.93
2019-05-29T22:30:55.331Z,1.00
2019-05-29T22:36:01.802Z,0.97
2019-05-29T22:41:07.838Z,1.00
2019-05-29T22:46:12.791Z,0.90
2019-05-29T22:51:17.880Z,1.10
2019-05-29T22:56:22.778Z,1.00
2019-05-29T23:01:27.689Z,1.20
2019-05-29T23:06:32.541Z,1.13
2019-05-29T23:11:38.149Z,1.10
2019-05-29T23:16:43.023Z,1.30
2019-05-29T23:21:47.945Z,1.00
2019-05-29T23:26:52.963Z,1.30
2019-05-29T23:31:58.906Z,1.80
2019-05-29T23:37:03.826Z,1.73
2019-05-29T23:42:08.640Z,1.43
2019-05-29T23:47:13.508Z,1.57
2019-05-29T23:52:18.228Z,1.87
2019-05-29T23:57:23.083Z,1.70
